Flight Track Log - Related Links

Times and Time Zones

All times are in EDT time to prevent confusion due to time zone crossing. See the N78866 flight status page for this flight to view local times or setup timezone preferences in your user account.

Time Position Orientation Groundspeed Altitude Reporting Facility
EDT Latitude Longitude Course Direction KTS MPH feet Rate Location/Type
Thu 04:35:32 PM 40.6667 -74.2409 58° Northeast  Level FlightAware Approximate
Thu 04:36:02 PM 40.7167 -74.1333 276° West 188 216 1,800  Level New York TRACON
Thu 04:40:16 PM 40.7353 -74.3889 321° Northwest 266 306 11,000 1,917 Climbing New York Center
Thu 04:41:15 PM 40.7978 -74.4553 288° West 230 265 11,800 1,650 Climbing New York Center
Thu 04:42:16 PM 40.8164 -74.5331 239° Southwest 244 281 14,300 1,587 Climbing New York Center
Thu 04:43:16 PM 40.7669 -74.6397 236° Southwest 280 322 15,000 1,008 Climbing New York Center
Thu 04:44:15 PM 40.7158 -74.7408 234° Southwest 354 407 16,300 1,916 Climbing New York Center
Thu 04:45:15 PM 40.6511 -74.8603 234° Southwest 373 429 18,800 2,182 Climbing New York Center
Thu 04:46:16 PM 40.5889 -74.9742 232° Southwest 378 435 20,700 1,884 Climbing New York Center
Thu 04:47:16 PM 40.5222 -75.0875 229° Southwest 389 448 22,600 1,785 Climbing New York Center
Thu 04:48:17 PM 40.4539 -75.1922 231° Southwest 406 467 24,300 1,686 Climbing New York Center
Thu 04:49:17 PM 40.3828 -75.3075 230° Southwest 411 473 26,000 1,780 Climbing New York Center
Thu 04:50:15 PM 40.3028 -75.4331 231° Southwest 416 479 27,800 1,462 Climbing New York Center
Thu 04:51:16 PM 40.2269 -75.5556 237° Southwest 423 487 28,900 1,672 Climbing New York Center
Thu 04:52:17 PM 40.1725 -75.6633 233° Southwest 418 481 31,200 2,132 Climbing New York Center
Thu 04:53:17 PM 40.1053 -75.7781 228° Southwest 411 473 33,200 2,250 Climbing New York Center
Thu 04:54:17 PM 40.0294 -75.8892 228° Southwest 393 452 35,700 1,424 Climbing New York Center
Thu 04:55:15 PM 39.9650 -75.9819 228° Southwest 364 419 36,000 150 Climbing New York Center
Thu 04:56:17 PM 39.9006 -76.0744 228° Southwest 356 410 36,000  Level New York Center
Thu 04:57:17 PM 39.8333 -76.1722 232° Southwest 356 410 36,000  Level New York Center
Thu 04:58:16 PM 39.7747 -76.2703 228° Southwest 356 410 36,000  Level New York Center
Thu 04:59:17 PM 39.7122 -76.3600 227° Southwest 362 417 36,000  Level New York Center
Thu 05:00:15 PM 39.6428 -76.4569 228° Southwest 369 425 36,000  Level New York Center
Thu 05:01:31 PM 39.5575 -76.5794 228° Southwest 361 415 36,000  Level Washington Center
Thu 05:02:31 PM 39.4878 -76.6806 227° Southwest 366 421 36,000  Level Washington Center
Thu 05:03:31 PM 39.4181 -76.7789 227° Southwest 371 427 36,000  Level Washington Center
Thu 05:04:30 PM 39.3483 -76.8772 227° Southwest 376 433 36,000  Level Washington Center
Thu 05:05:30 PM 39.2764 -76.9778 228° Southwest 376 433 36,000  Level Washington Center
Thu 05:06:31 PM 39.2044 -77.0808 227° Southwest 382 440 36,000  Level Washington Center
Thu 05:07:29 PM 39.1342 -77.1783 228° Southwest 382 440 36,000  Level Washington Center
Thu 05:08:29 PM 39.0619 -77.2811 227° Southwest 382 440 36,000  Level Washington Center
Thu 05:09:30 PM 38.9897 -77.3808 226° Southwest 382 440 36,000  Level Washington Center
Thu 05:10:30 PM 38.9153 -77.4806 229° Southwest 387 445 36,000  Level Washington Center
Thu 05:11:31 PM 38.8342 -77.6011 227° Southwest 399 459 36,000  Level Washington Center
Thu 05:12:31 PM 38.7594 -77.7028 228° Southwest 399 459 36,000  Level Washington Center
Thu 05:14:29 PM 38.6139 -77.9058 234° Southwest 414 476 36,000  Level Washington Center
Thu 05:15:30 PM 38.5469 -78.0233 234° Southwest 420 483 36,000  Level Washington Center
Thu 05:16:31 PM 38.4797 -78.1406 233° Southwest 420 483 36,000  Level Washington Center
Thu 05:17:29 PM 38.4083 -78.2600 232° Southwest 426 490 36,000  Level Washington Center
Thu 05:18:29 PM 38.3347 -78.3789 233° Southwest 426 490 36,000  Level Washington Center
Thu 05:19:30 PM 38.2631 -78.5006 236° Southwest 431 496 36,000  Level Washington Center
Thu 05:20:31 PM 38.1997 -78.6197 233° Southwest 426 490 36,000  Level Washington Center
Thu 05:21:31 PM 38.1256 -78.7433 233° Southwest 426 490 36,000  Level Washington Center
Thu 05:22:32 PM 38.0469 -78.8747 232° Southwest 426 490 36,000  Level Washington Center
Thu 05:23:30 PM 37.9728 -78.9953 232° Southwest 432 497 36,000  Level Washington Center
Thu 05:24:31 PM 37.8983 -79.1156 228° Southwest 432 497 36,000  Level Washington Center
Thu 05:25:32 PM 37.8178 -79.2300 228° Southwest 432 497 36,000  Level Washington Center
Thu 05:26:29 PM 37.7481 -79.3264 227° Southwest 437 503 36,000  Level Washington Center
Thu 05:27:29 PM 37.6608 -79.4428 228° Southwest 448 516 36,000  Level Washington Center
Thu 05:28:30 PM 37.5714 -79.5667 227° Southwest 448 516 36,000  Level Washington Center
Thu 05:29:30 PM 37.4969 -79.6675 228° Southwest 448 516 36,000  Level Washington Center
Thu 05:30:31 PM 37.4139 -79.7833 227° Southwest 439 505 36,000  Level Washington Center
Thu 05:31:31 PM 37.3306 -79.8939 227° Southwest 439 505 36,000  Level Washington Center
Thu 05:33:44 PM 37.1372 -80.1519 227° Southwest 438 504 36,000  Level Atlanta Center
Thu 05:34:43 PM 37.0553 -80.2625 221° Southwest 430 495 36,000  Level Atlanta Center
Thu 05:35:43 PM 36.9644 -80.3603 214° Southwest 437 503 36,000  Level Atlanta Center
Thu 05:36:43 PM 36.8750 -80.4344 213° Southwest 437 503 36,000  Level Atlanta Center
Thu 05:37:43 PM 36.7750 -80.5142 215° Southwest 432 497 36,000  Level Atlanta Center
Thu 05:38:43 PM 36.6794 -80.5961 214° Southwest 413 475 36,000  Level Atlanta Center
Thu 05:39:46 PM 36.5836 -80.6778 213° Southwest 414 476 36,000  Level Atlanta Center
Thu 05:40:55 PM 36.4672 -80.7706 214° Southwest 419 482 36,000  Level Atlanta Center
Thu 05:41:55 PM 36.3672 -80.8544 214° Southwest 426 490 36,000  Level Atlanta Center
Thu 05:42:55 PM 36.2714 -80.9356 202° Southwest 426 490 36,000  Level Atlanta Center
Thu 05:43:55 PM 36.1622 -80.9911 182° South 422 486 36,000  Level Atlanta Center
Thu 05:44:55 PM 36.0436 -80.9956 181° South 422 486 36,000  Level Atlanta Center
Thu 05:45:55 PM 35.9122 -80.9981 181° South 422 486 36,000  Level Atlanta Center
Thu 05:46:55 PM 35.7933 -81.0000 180° South 428 493 36,000  Level Atlanta Center
Thu 05:47:55 PM 35.6744 -80.9992 181° South 428 493 36,000  Level Atlanta Center
Thu 05:48:55 PM 35.5514 -81.0011 183° South 438 504 36,000  Level Atlanta Center
Thu 05:49:55 PM 35.4450 -81.0078 182° South 433 498 36,000  Level Atlanta Center
Thu 05:50:55 PM 35.3283 -81.0119 181° South 428 493 36,000  Level Atlanta Center
Thu 05:51:55 PM 35.2117 -81.0136 182° South 428 493 36,000  Level Atlanta Center
Thu 05:54:24 PM 34.9011 -81.0244 178° South 428 493 36,000  Level Jacksonville Center
Thu 05:55:24 PM 34.7842 -81.0194 182° South 428 493 36,000  Level Jacksonville Center
Thu 05:56:24 PM 34.6656 -81.0247 181° South 434 499 36,000  Level Jacksonville Center
Thu 05:57:24 PM 34.5444 -81.0272 180° South 434 499 36,000  Level Jacksonville Center
Thu 05:58:24 PM 34.4278 -81.0272 181° South 434 499 36,000  Level Jacksonville Center
Thu 05:59:24 PM 34.3089 -81.0297 180° South 434 499 36,000  Level Jacksonville Center
Thu 06:00:24 PM 34.2044 -81.0294 181° South 420 483 36,000  Level Jacksonville Center
Thu 06:01:24 PM 34.0897 -81.0319 180° South 420 483 36,000  Level Jacksonville Center
Thu 06:02:24 PM 33.9667 -81.0322 182° South 420 483 36,000  Level Jacksonville Center
Thu 06:03:24 PM 33.8500 -81.0369 181° South 426 490 36,000  Level Jacksonville Center
Thu 06:04:24 PM 33.7311 -81.0397 181° South 420 483 36,000  Level Jacksonville Center
Thu 06:05:24 PM 33.6142 -81.0419 181° South 420 483 36,000  Level Jacksonville Center
Thu 06:06:24 PM 33.4953 -81.0444 181° South 420 483 36,000  Level Jacksonville Center
Thu 06:07:24 PM 33.3764 -81.0469 181° South 420 483 36,000  Level Jacksonville Center
Thu 06:08:24 PM 33.2575 -81.0494 181° South 425 489 36,000  Level Jacksonville Center
Thu 06:09:24 PM 33.1383 -81.0519 181° South 425 489 36,000  Level Jacksonville Center
Thu 06:10:24 PM 33.0175 -81.0544 181° South 430 495 36,000  Level Jacksonville Center
Thu 06:11:24 PM 32.8944 -81.0569 180° South 435 501 36,000  Level Jacksonville Center
Thu 06:12:24 PM 32.7753 -81.0569 181° South 440 506 36,000  Level Jacksonville Center
Thu 06:13:24 PM 32.6542 -81.0594 181° South 440 506 36,000  Level Jacksonville Center
Thu 06:14:24 PM 32.5228 -81.0619 177° South 440 506 36,000  Level Jacksonville Center
Thu 06:15:24 PM 32.4017 -81.0544 173° South 438 504 36,000  Level Jacksonville Center
Thu 06:16:24 PM 32.2928 -81.0394 171° South 441 507 36,000  Level Jacksonville Center
Thu 06:17:24 PM 32.1589 -81.0153 173° South 450 518 36,000  Level Jacksonville Center
Thu 06:18:24 PM 32.0356 -80.9981 175° South 450 518 36,000  Level Jacksonville Center
Thu 06:19:24 PM 31.9267 -80.9858 174° South 445 512 36,000  Level Jacksonville Center
Thu 06:20:24 PM 31.7886 -80.9689 172° South 451 519 36,000  Level Jacksonville Center
Thu 06:21:24 PM 31.6653 -80.9497 174° South 451 519 36,000  Level Jacksonville Center
Thu 06:22:24 PM 31.5564 -80.9372 172° South 446 513 36,000 -250 Level Jacksonville Center
Thu 06:23:24 PM 31.4183 -80.9158 174° South 446 513 35,500 -900 Descending Jacksonville Center
Thu 06:24:24 PM 31.3033 -80.9011 173° South 452 520 34,200 -1,350 Descending Jacksonville Center
Thu 06:25:24 PM 31.1736 -80.8822 174° South 466 536 32,800 -1,350 Descending Jacksonville Center
Thu 06:26:24 PM 31.0458 -80.8656 174° South 466 536 31,500 -1,450 Descending Jacksonville Center
Thu 06:27:24 PM 30.9119 -80.8489 173° South 472 543 29,900 -1,350 Descending Jacksonville Center
Thu 06:28:24 PM 30.7758 -80.8300 174° South 486 559 28,800 -1,000 Descending Jacksonville Center
Thu 06:29:24 PM 30.6442 -80.8136 174° South 486 559 27,900 -1,050 Descending Jacksonville Center
Thu 06:30:24 PM 30.5144 -80.7972 174° South 480 552 26,700 -1,350 Descending Jacksonville Center
Thu 06:31:24 PM 30.3869 -80.7808 174° South 474 545 25,200 -1,350 Descending Jacksonville Center
Thu 06:32:24 PM 30.2592 -80.7644 174° South 469 540 24,000 -600 Descending Jacksonville Center
Thu 06:33:24 PM 30.1317 -80.7481 174° South 463 533 24,000  Level Jacksonville Center
Thu 06:34:24 PM 30.0144 -80.7336 174° South 453 521 24,000  Level Jacksonville Center
Thu 06:35:24 PM 29.9036 -80.7194 175° South 424 488 24,000 -50 Level Jacksonville Center
Thu 06:36:24 PM 29.7886 -80.7078 173° South 412 474 23,900 -750 Descending Jacksonville Center
Thu 06:37:24 PM 29.6861 -80.6933 173° South 400 460 22,500 -1,550 Descending Jacksonville Center
Thu 06:38:24 PM 29.5792 -80.6789 174° South 395 455 20,800 -1,750 Descending Jacksonville Center
Thu 06:39:24 PM 29.4747 -80.6669 172° South 389 448 19,000 -1,750 Descending Jacksonville Center
Thu 06:40:24 PM 29.3722 -80.6503 192° South 365 420 17,300 -1,650 Descending Jacksonville Center
Thu 06:41:24 PM 29.2786 -80.6739 192° South 348 400 15,700 -1,650 Descending Jacksonville Center
Thu 06:42:24 PM 29.1808 -80.6975 195° South 347 399 14,000 -1,600 Descending Jacksonville Center
Thu 06:43:24 PM 29.0875 -80.7256 191° South 353 406 12,500 -950 Descending Jacksonville Center
Thu 06:44:24 PM 29.0042 -80.7439 193° South 336 387 12,100 -450 Descending Jacksonville Center
Thu 06:45:24 PM 28.9253 -80.7647 203° Southwest 309 356 11,600 -850 Descending Jacksonville Center
Thu 06:46:24 PM 28.8550 -80.7994 243° Southwest 292 336 10,400 -750 Descending Jacksonville Center
Thu 06:47:24 PM 28.8247 -80.8686 243° Southwest 249 287 10,100 -150 Descending Jacksonville Center
Thu 06:48:24 PM 28.7944 -80.9356 242° Southwest 244 281 10,100 -600 Level Jacksonville Center
Thu 06:49:24 PM 28.7661 -80.9956 242° Southwest 237 273 8,900 -1,200 Descending Jacksonville Center
Thu 06:50:24 PM 28.7358 -81.0600 245° Southwest 231 266 7,700 -1,300 Descending Jacksonville Center
Thu 06:51:24 PM 28.7094 -81.1244 237° Southwest 225 259 6,300 -1,438 Descending Jacksonville Center
Thu 06:52:50 PM 28.6667 -81.2000 221° Southwest 213 245 4,200 -1,192 Descending Orlando TRACON
Thu 06:53:50 PM 28.6167 -81.2500 221° Southwest 198 228 3,400 -762 Descending Orlando TRACON
Thu 06:54:56 PM 28.5833 -81.2833 221° Southwest 189 217 2,600 -727 Descending Orlando TRACON

Login

Don't have an account? Register now (free) for customized features, flight alerts, and more!